Time;durP1;ratioP1;P1;durP2;ratioP2;P2;SDS_P1;SDS_P2;PMS_P1;PMS_P2;Temp;Humidity;BMP_temperature;BMP_pressure;BME280_temperature;BME280_humidity;BME280_pressure;Samples;Min_cycle;Max_cycle;Signal;HPM_P1;HPM_P2
2022/07/08 00:00:06;;;;;;;129.05;116.30;;;15.10;92.50;;;;;;4998097;28;20148;-72
2022/07/08 00:02:38;;;;;;;131.80;118.07;;;15.10;92.70;;;;;;4998241;28;20049;-72
2022/07/08 00:05:06;;;;;;;130.30;117.40;;;15.00;92.60;;;;;;4998277;28;20042;-72
2022/07/08 00:07:58;;;;;;;128.52;115.72;;;15.00;92.60;;;;;;5017025;28;20050;-72
2022/07/08 00:10:25;;;;;;;129.10;116.22;;;15.00;92.80;;;;;;4996775;28;20130;-71
2022/07/08 00:12:52;;;;;;;129.30;116.80;;;15.00;92.80;;;;;;5014502;28;20534;-71
2022/07/08 00:15:21;;;;;;;131.25;118.18;;;14.90;92.90;;;;;;4998481;28;20588;-72
2022/07/08 00:17:48;;;;;;;129.18;116.40;;;14.90;93.00;;;;;;4997704;28;20057;-72
2022/07/08 00:20:15;;;;;;;132.30;119.15;;;14.90;93.10;;;;;;4998029;28;20043;-72
2022/07/08 00:22:42;;;;;;;135.57;122.28;;;14.90;93.40;;;;;;4997392;28;20420;-71
2022/07/08 00:25:10;;;;;;;130.57;117.70;;;14.80;93.50;;;;;;5015615;28;20062;-72
2022/07/08 00:27:36;;;;;;;131.70;118.95;;;14.90;93.50;;;;;;5013811;28;20053;-71
2022/07/08 00:30:04;;;;;;;129.93;117.05;;;14.80;93.50;;;;;;4998146;28;20054;-72
2022/07/08 00:32:32;;;;;;;131.35;118.70;;;14.80;93.60;;;;;;4997696;28;20099;-71
2022/07/08 00:34:59;;;;;;;132.55;119.53;;;14.80;93.70;;;;;;5014013;28;20054;-72
2022/07/08 00:37:26;;;;;;;130.90;118.20;;;14.80;93.80;;;;;;4997484;28;20583;-72
2022/07/08 00:39:53;;;;;;;126.95;114.18;;;14.70;93.90;;;;;;5013623;28;20055;-71
2022/07/08 00:42:20;;;;;;;129.18;116.47;;;14.80;94.00;;;;;;4996337;28;20497;-72
2022/07/08 00:44:47;;;;;;;131.32;118.22;;;14.80;94.00;;;;;;5014984;28;20086;-71
2022/07/08 00:47:14;;;;;;;128.98;115.78;;;14.80;94.20;;;;;;5014234;28;20070;-72
2022/07/08 00:49:43;;;;;;;132.43;119.00;;;14.80;94.40;;;;;;4996284;28;20046;-72
2022/07/08 00:52:10;;;;;;;128.80;115.78;;;14.70;94.20;;;;;;5015042;28;20051;-71
2022/07/08 00:54:38;;;;;;;129.55;116.45;;;14.70;94.40;;;;;;4981318;28;20054;-71
2022/07/08 00:57:05;;;;;;;130.68;117.35;;;14.70;94.30;;;;;;5014812;28;20524;-72
2022/07/08 00:59:32;;;;;;;131.40;118.50;;;14.70;94.40;;;;;;5015109;28;20532;-72
2022/07/08 01:01:59;;;;;;;130.20;117.55;;;14.70;94.60;;;;;;5015086;28;20050;-71
2022/07/08 01:04:26;;;;;;;128.93;115.97;;;14.60;94.60;;;;;;5014767;28;20137;-72
2022/07/08 01:06:54;;;;;;;129.10;116.20;;;14.60;94.70;;;;;;4996960;28;20540;-72
2022/07/08 01:09:21;;;;;;;128.90;115.82;;;14.60;94.80;;;;;;4997444;28;20053;-72
2022/07/08 01:11:48;;;;;;;132.45;119.25;;;14.60;94.90;;;;;;5013513;28;20062;-72
2022/07/08 01:14:16;;;;;;;130.48;117.40;;;14.60;94.90;;;;;;5029919;28;20050;-72
2022/07/08 01:16:43;;;;;;;129.98;116.90;;;14.60;95.00;;;;;;5028341;28;20057;-71
2022/07/08 01:19:10;;;;;;;130.15;117.00;;;14.60;95.00;;;;;;4996652;28;20141;-71
2022/07/08 01:21:38;;;;;;;128.70;115.60;;;14.60;95.10;;;;;;4996859;28;20061;-71
2022/07/08 01:24:06;;;;;;;128.93;116.25;;;14.60;95.20;;;;;;5014277;28;20058;-71
2022/07/08 01:26:33;;;;;;;130.70;117.53;;;14.60;95.30;;;;;;5014695;28;20131;-72
2022/07/08 01:29:00;;;;;;;129.77;116.70;;;14.60;95.30;;;;;;5014350;28;20133;-72
2022/07/08 01:31:27;;;;;;;130.70;117.53;;;14.60;95.30;;;;;;4996569;28;20504;-71
2022/07/08 01:33:54;;;;;;;129.23;115.78;;;14.50;95.40;;;;;;4996946;28;20802;-71
2022/07/08 01:36:21;;;;;;;128.25;115.18;;;14.50;95.40;;;;;;4997018;28;20046;-71
2022/07/08 01:38:50;;;;;;;128.43;115.45;;;14.50;95.40;;;;;;5029634;28;20058;-71
2022/07/08 01:41:16;;;;;;;127.53;114.53;;;14.50;95.50;;;;;;4996911;28;20432;-71
2022/07/08 01:43:44;;;;;;;126.30;113.40;;;14.50;95.50;;;;;;5013076;28;20149;-71
2022/07/08 01:46:11;;;;;;;126.15;113.50;;;14.50;95.60;;;;;;5013904;28;20877;-71
2022/07/08 01:48:39;;;;;;;127.10;114.18;;;14.40;95.60;;;;;;4994781;28;20385;-71
2022/07/08 01:51:06;;;;;;;128.05;114.55;;;14.40;95.60;;;;;;5014282;28;20129;-72
2022/07/08 01:53:33;;;;;;;127.82;114.95;;;14.30;95.70;;;;;;4996263;28;20054;-71
2022/07/08 01:56:01;;;;;;;127.78;114.53;;;14.30;95.70;;;;;;4996320;28;20929;-71
2022/07/08 01:58:29;;;;;;;125.95;113.22;;;14.30;95.70;;;;;;4996086;28;20054;-71
2022/07/08 02:00:56;;;;;;;125.07;112.45;;;14.20;95.80;;;;;;5012398;28;20169;-71
2022/07/08 02:03:22;;;;;;;126.85;113.90;;;14.20;95.80;;;;;;5013993;28;20058;-71
2022/07/08 02:05:49;;;;;;;127.57;114.57;;;14.20;95.90;;;;;;5012949;28;20053;-72
2022/07/08 02:08:16;;;;;;;128.68;115.28;;;14.20;96.00;;;;;;4996176;28;20496;-72
2022/07/08 02:13:29;;;;;;;;;;;14.10;96.10;;;;;;5014216;28;20046;-71
2022/07/08 02:15:56;;;;;;;124.90;111.82;;;14.10;95.90;;;;;;5029395;28;19926;-72
2022/07/08 02:18:23;;;;;;;126.95;113.63;;;14.10;96.10;;;;;;4995637;28;20051;-72
2022/07/08 02:20:51;;;;;;;127.18;114.10;;;14.10;96.10;;;;;;4994589;28;20049;-72
2022/07/08 02:23:17;;;;;;;126.05;113.35;;;14.10;96.10;;;;;;4980061;28;20520;-72
2022/07/08 02:25:44;;;;;;;126.78;113.82;;;14.00;96.10;;;;;;5011981;28;20051;-71
2022/07/08 02:28:11;;;;;;;129.95;116.50;;;14.00;96.10;;;;;;5013355;28;20129;-71
2022/07/08 02:30:39;;;;;;;128.45;115.68;;;14.00;96.20;;;;;;4996097;28;20054;-71
2022/07/08 02:33:06;;;;;;;128.18;115.25;;;13.90;96.30;;;;;;5013798;28;20204;-72
2022/07/08 02:35:33;;;;;;;126.40;113.70;;;13.90;96.30;;;;;;5013353;28;20056;-71
2022/07/08 02:38:00;;;;;;;126.53;113.93;;;13.90;96.40;;;;;;5013085;28;20082;-72
2022/07/08 02:40:27;;;;;;;126.57;113.63;;;13.90;96.30;;;;;;5013457;28;20907;-72
2022/07/08 02:42:54;;;;;;;126.22;113.32;;;13.80;96.30;;;;;;4995835;28;20051;-72
2022/07/08 02:45:21;;;;;;;125.35;112.72;;;13.80;96.40;;;;;;5012240;28;20043;-71
2022/07/08 02:47:49;;;;;;;124.18;111.38;;;13.80;96.40;;;;;;4995379;28;20057;-72
2022/07/08 02:50:16;;;;;;;126.25;113.50;;;13.70;96.40;;;;;;4995581;28;20054;-71
2022/07/08 02:52:43;;;;;;;125.80;112.45;;;13.70;96.40;;;;;;4994564;28;20078;-72
2022/07/08 02:55:10;;;;;;;126.00;112.78;;;13.70;96.40;;;;;;5010259;28;20089;-72
2022/07/08 02:57:36;;;;;;;128.23;115.20;;;13.70;96.40;;;;;;4995295;28;20065;-72
2022/07/08 03:00:04;;;;;;;126.90;114.07;;;13.70;96.50;;;;;;5011535;28;20054;-71
2022/07/08 03:02:31;;;;;;;127.40;114.45;;;13.60;96.50;;;;;;5028273;28;20046;-71
2022/07/08 03:05:00;;;;;;;128.07;114.63;;;13.60;96.50;;;;;;5011592;28;20117;-72
2022/07/08 03:07:27;;;;;;;128.05;114.88;;;13.60;96.60;;;;;;5012775;28;20058;-72
2022/07/08 03:09:54;;;;;;;127.10;114.10;;;13.60;96.60;;;;;;4995298;28;20050;-71
2022/07/08 03:12:21;;;;;;;125.20;112.38;;;13.60;96.50;;;;;;5013625;28;20065;-72
2022/07/08 03:14:48;;;;;;;126.47;113.65;;;13.60;96.70;;;;;;5016301;28;20054;-71
2022/07/08 03:17:15;;;;;;;126.72;113.88;;;13.50;96.50;;;;;;5016109;28;20064;-71
2022/07/08 03:19:41;;;;;;;127.40;114.20;;;13.50;96.50;;;;;;5016087;28;20050;-72
2022/07/08 03:22:10;;;;;;;125.28;112.50;;;13.50;96.50;;;;;;5015209;28;20057;-72
2022/07/08 03:24:37;;;;;;;125.53;112.50;;;13.50;96.60;;;;;;4998633;28;20055;-71
2022/07/08 03:27:04;;;;;;;126.88;113.75;;;13.50;96.60;;;;;;5014579;28;20127;-71
2022/07/08 03:29:31;;;;;;;125.22;112.68;;;13.50;96.70;;;;;;5016234;28;20050;-72
2022/07/08 03:31:58;;;;;;;124.13;111.47;;;13.40;96.60;;;;;;5016154;28;20101;-71
2022/07/08 03:34:25;;;;;;;126.65;113.55;;;13.40;96.70;;;;;;5014383;28;20052;-71
2022/07/08 03:36:52;;;;;;;126.47;113.85;;;13.40;96.70;;;;;;5015965;28;20108;-71
2022/07/08 03:39:20;;;;;;;125.75;112.93;;;13.40;96.70;;;;;;5014596;28;20054;-71
2022/07/08 03:41:46;;;;;;;127.15;113.93;;;13.40;96.70;;;;;;4998200;28;20097;-72
2022/07/08 03:44:13;;;;;;;126.88;113.63;;;13.30;96.90;;;;;;5016085;28;20104;-71
2022/07/08 03:46:40;;;;;;;127.72;114.78;;;13.30;96.80;;;;;;5015780;28;20141;-72
2022/07/08 03:49:07;;;;;;;125.68;113.05;;;13.30;96.90;;;;;;4998096;28;20138;-71
2022/07/08 03:51:34;;;;;;;126.00;113.15;;;13.30;96.90;;;;;;4998262;28;20133;-72
2022/07/08 03:54:01;;;;;;;128.52;115.20;;;13.20;96.90;;;;;;4981837;28;20054;-71
2022/07/08 03:56:29;;;;;;;126.82;113.82;;;13.30;97.00;;;;;;4998345;28;20510;-71
2022/07/08 03:58:56;;;;;;;130.40;117.03;;;13.20;97.00;;;;;;5014594;28;20066;-72
2022/07/08 04:01:23;;;;;;;126.70;113.85;;;13.20;97.10;;;;;;5014238;28;20054;-72
2022/07/08 04:03:50;;;;;;;126.75;113.93;;;13.20;97.10;;;;;;4998438;28;20046;-71
2022/07/08 04:06:17;;;;;;;127.32;114.28;;;13.20;97.20;;;;;;5014491;28;20061;-72
2022/07/08 04:08:44;;;;;;;125.45;112.63;;;13.20;97.10;;;;;;4997749;28;20138;-71
2022/07/08 04:11:11;;;;;;;126.00;113.00;;;13.20;97.10;;;;;;5014579;28;20046;-71
2022/07/08 04:13:40;;;;;;;127.43;114.30;;;13.10;97.20;;;;;;4997870;28;20051;-71
2022/07/08 04:16:12;;;;;;;128.65;115.43;;;13.20;97.20;;;;;;4998130;28;20062;-71
2022/07/08 04:18:39;;;;;;;126.13;113.10;;;13.20;97.20;;;;;;5015513;28;20047;-71
2022/07/08 04:21:06;;;;;;;128.65;115.47;;;13.20;97.30;;;;;;5015785;28;20066;-71
2022/07/08 04:23:33;;;;;;;129.07;115.82;;;13.20;97.20;;;;;;4997205;28;20049;-72
2022/07/08 04:26:00;;;;;;;128.48;115.03;;;13.20;97.30;;;;;;5013840;28;20081;-71
2022/07/08 04:28:27;;;;;;;128.07;114.38;;;13.20;97.30;;;;;;5015372;28;20153;-72
2022/07/08 04:30:56;;;;;;;127.10;113.68;;;13.20;97.40;;;;;;5015559;28;20133;-71
2022/07/08 04:33:22;;;;;;;127.65;114.20;;;13.20;97.40;;;;;;5013442;28;20065;-71
2022/07/08 04:35:49;;;;;;;129.55;115.90;;;13.20;97.40;;;;;;5015551;28;20046;-72
2022/07/08 04:38:16;;;;;;;128.68;115.45;;;13.20;97.40;;;;;;5014769;28;20608;-71
2022/07/08 04:40:43;;;;;;;127.38;114.07;;;13.20;97.60;;;;;;5015245;28;20058;-72
2022/07/08 04:43:12;;;;;;;128.75;115.32;;;13.20;97.70;;;;;;4997347;28;20046;-71
2022/07/08 04:45:39;;;;;;;128.98;115.63;;;13.20;97.60;;;;;;4997147;28;20129;-72
2022/07/08 04:48:07;;;;;;;128.02;114.47;;;13.20;97.60;;;;;;5014786;28;20050;-72
2022/07/08 04:50:34;;;;;;;123.97;110.70;;;13.20;97.70;;;;;;5014538;28;20509;-71
2022/07/08 04:53:01;;;;;;;128.13;114.45;;;13.20;97.70;;;;;;4998334;28;20070;-71
2022/07/08 04:55:31;;;;;;;127.32;113.85;;;13.30;97.70;;;;;;5013889;28;20052;-71
2022/07/08 04:58:00;;;;;;;128.82;115.03;;;13.30;97.70;;;;;;4980818;28;20152;-71
2022/07/08 05:00:27;;;;;;;127.93;114.28;;;13.30;97.80;;;;;;4996820;28;20054;-71
2022/07/08 05:02:55;;;;;;;127.55;113.90;;;13.30;97.90;;;;;;5014378;28;20082;-71
2022/07/08 05:05:23;;;;;;;129.30;115.80;;;13.40;97.90;;;;;;4996235;28;20047;-71
2022/07/08 05:07:51;;;;;;;127.55;114.22;;;13.40;98.00;;;;;;5028984;28;20050;-71
2022/07/08 05:10:21;;;;;;;126.43;113.30;;;13.40;98.00;;;;;;5028855;28;20134;-72
2022/07/08 05:12:49;;;;;;;127.28;113.75;;;13.50;98.10;;;;;;5015171;28;20050;-71
2022/07/08 05:15:16;;;;;;;128.65;115.05;;;13.50;98.10;;;;;;5014701;28;20061;-71
2022/07/08 05:17:43;;;;;;;127.28;114.00;;;13.50;98.10;;;;;;5013013;28;20053;-72
2022/07/08 05:20:11;;;;;;;126.97;113.55;;;13.60;98.20;;;;;;4996678;28;20141;-72
2022/07/08 05:22:40;;;;;;;124.88;112.00;;;13.70;98.30;;;;;;5013273;28;20088;-71
2022/07/08 05:25:08;;;;;;;125.05;112.18;;;13.70;98.30;;;;;;5010014;28;20065;-72
2022/07/08 05:27:36;;;;;;;125.75;112.95;;;13.80;98.30;;;;;;5013453;28;20047;-72
2022/07/08 05:30:04;;;;;;;127.13;114.15;;;13.80;98.30;;;;;;5028373;28;20105;-72
2022/07/08 05:32:31;;;;;;;125.82;112.75;;;13.80;98.30;;;;;;4997984;28;20050;-72
2022/07/08 05:34:58;;;;;;;126.82;113.65;;;13.90;98.30;;;;;;5018591;28;20046;-72
2022/07/08 05:37:25;;;;;;;127.05;114.07;;;14.00;98.40;;;;;;4999565;28;20516;-72
2022/07/08 05:39:53;;;;;;;125.88;112.68;;;14.00;98.40;;;;;;4994243;28;20057;-72
2022/07/08 05:42:20;;;;;;;127.85;114.43;;;14.10;98.40;;;;;;5012380;28;20120;-72
2022/07/08 05:44:47;;;;;;;127.22;113.80;;;14.10;98.40;;;;;;4994263;28;20054;-72
2022/07/08 05:47:14;;;;;;;127.80;114.78;;;14.20;98.50;;;;;;5015466;28;20082;-72
2022/07/08 05:49:43;;;;;;;126.70;113.43;;;14.20;98.40;;;;;;4999517;28;20472;-72
2022/07/08 05:52:10;;;;;;;128.82;115.55;;;14.30;98.50;;;;;;4983386;28;20501;-72
2022/07/08 05:54:38;;;;;;;127.60;114.30;;;14.30;98.40;;;;;;5018054;28;20057;-73
2022/07/08 05:57:06;;;;;;;126.97;113.78;;;14.40;98.50;;;;;;5034946;28;20042;-72
2022/07/08 05:59:33;;;;;;;125.90;112.95;;;14.40;98.50;;;;;;4989257;28;20108;-72
2022/07/08 06:02:00;;;;;;;127.45;114.50;;;14.50;98.60;;;;;;5015561;28;20427;-72
2022/07/08 06:04:28;;;;;;;125.88;113.43;;;14.60;98.50;;;;;;5015496;28;20128;-72
2022/07/08 06:06:55;;;;;;;127.03;114.03;;;14.60;98.50;;;;;;5014637;28;20053;-72
2022/07/08 06:09:22;;;;;;;126.35;113.40;;;14.70;98.40;;;;;;5032458;28;20056;-72
2022/07/08 06:11:49;;;;;;;127.38;114.43;;;14.70;98.30;;;;;;5014519;28;20551;-72
2022/07/08 06:14:17;;;;;;;127.95;114.78;;;14.80;98.30;;;;;;5008107;28;20054;-72
2022/07/08 06:16:47;;;;;;;127.80;114.50;;;14.80;98.40;;;;;;5011302;28;20046;-72
2022/07/08 06:19:14;;;;;;;126.82;113.97;;;14.90;98.40;;;;;;5012954;28;20117;-72
2022/07/08 06:21:41;;;;;;;127.25;114.32;;;15.00;98.50;;;;;;4995305;28;20121;-72
2022/07/08 06:24:08;;;;;;;126.30;113.30;;;15.00;98.30;;;;;;4995087;28;20522;-71
2022/07/08 06:26:35;;;;;;;127.45;114.32;;;15.10;98.30;;;;;;5012786;28;20145;-72
2022/07/08 06:29:02;;;;;;;127.30;114.50;;;15.10;98.30;;;;;;4994832;28;21089;-72
2022/07/08 06:31:31;;;;;;;127.43;114.22;;;15.20;98.30;;;;;;4995210;28;20517;-72
2022/07/08 06:33:58;;;;;;;126.22;113.18;;;15.20;98.40;;;;;;5012422;28;20053;-72
2022/07/08 06:36:25;;;;;;;128.35;115.25;;;15.30;98.40;;;;;;4998404;28;20474;-72
2022/07/08 06:38:52;;;;;;;127.53;114.15;;;15.30;98.40;;;;;;4995274;28;20137;-72
2022/07/08 06:41:19;;;;;;;128.35;114.80;;;15.40;98.40;;;;;;4995485;28;20050;-72
2022/07/08 06:43:47;;;;;;;126.10;113.70;;;15.40;98.30;;;;;;5013984;28;21884;-72
2022/07/08 06:46:14;;;;;;;126.00;113.13;;;15.50;98.30;;;;;;5007301;28;21003;-72
2022/07/08 06:48:43;;;;;;;129.20;115.95;;;15.50;98.40;;;;;;5014513;28;20104;-72
2022/07/08 06:51:11;;;;;;;129.07;115.80;;;15.60;98.30;;;;;;5014753;28;20050;-72
2022/07/08 06:56:22;;;;;;;127.78;114.80;;;15.70;98.40;;;;;;5015065;28;20093;-72
2022/07/08 06:58:49;;;;;;;129.50;116.15;;;15.70;98.30;;;;;;5031624;28;20058;-72
2022/07/08 07:01:16;;;;;;;131.15;117.97;;;15.80;98.40;;;;;;5013606;28;20100;-72
2022/07/08 07:03:45;;;;;;;132.27;118.88;;;15.90;98.40;;;;;;5031001;28;20571;-72
2022/07/08 07:06:12;;;;;;;131.77;118.60;;;15.90;98.30;;;;;;5013102;28;20054;-71
2022/07/08 07:08:39;;;;;;;129.35;116.57;;;16.00;98.30;;;;;;5031312;28;20050;-72
2022/07/08 07:11:06;;;;;;;131.00;118.00;;;16.00;98.20;;;;;;5014728;28;20057;-72
2022/07/08 07:13:33;;;;;;;130.35;117.45;;;16.00;98.10;;;;;;5014570;28;20153;-71
2022/07/08 07:16:00;;;;;;;132.95;120.00;;;16.10;98.10;;;;;;5013731;28;20046;-71
2022/07/08 07:18:26;;;;;;;131.95;119.13;;;16.10;98.00;;;;;;5013509;28;20046;-71
2022/07/08 07:20:55;;;;;;;131.90;118.88;;;16.20;98.00;;;;;;5008403;28;20182;-72
2022/07/08 07:23:22;;;;;;;133.25;120.03;;;16.20;98.00;;;;;;5014017;28;20054;-72
2022/07/08 07:25:49;;;;;;;134.85;121.40;;;16.20;98.00;;;;;;5030708;28;20057;-71
2022/07/08 07:28:15;;;;;;;134.38;121.45;;;16.30;98.00;;;;;;5012414;28;20058;-71
2022/07/08 07:30:42;;;;;;;131.57;118.75;;;16.30;98.00;;;;;;5030227;28;20619;-71
2022/07/08 07:33:09;;;;;;;134.55;121.38;;;16.30;98.00;;;;;;5030404;28;20594;-71
2022/07/08 07:35:37;;;;;;;135.18;121.97;;;16.40;98.00;;;;;;5012415;28;20203;-71
2022/07/08 07:38:05;;;;;;;134.23;121.28;;;16.40;97.90;;;;;;5011939;28;20052;-72
2022/07/08 07:40:32;;;;;;;136.40;123.07;;;16.50;97.90;;;;;;5031525;28;20061;-72
2022/07/08 07:42:59;;;;;;;133.40;120.63;;;16.50;97.90;;;;;;5029911;28;20145;-72
2022/07/08 07:45:26;;;;;;;135.27;122.10;;;16.50;97.80;;;;;;5026033;28;20062;-72
2022/07/08 07:47:53;;;;;;;132.75;119.45;;;16.50;97.80;;;;;;5031340;28;20146;-72
2022/07/08 07:50:19;;;;;;;130.73;118.20;;;16.60;97.80;;;;;;5013108;28;20145;-72
2022/07/08 07:52:46;;;;;;;132.57;119.07;;;16.60;97.70;;;;;;5031041;28;20046;-72
2022/07/08 07:55:15;;;;;;;131.77;118.93;;;16.70;97.80;;;;;;5009154;28;20088;-72
2022/07/08 07:57:42;;;;;;;131.45;118.75;;;16.70;97.90;;;;;;5031026;28;20132;-73
2022/07/08 08:00:10;;;;;;;130.68;118.00;;;16.80;97.90;;;;;;5042893;28;20065;-71
2022/07/08 08:02:40;;;;;;;132.30;119.43;;;16.80;97.80;;;;;;5017148;28;20140;-72
2022/07/08 08:05:08;;;;;;;131.70;118.85;;;16.90;97.80;;;;;;5017563;28;20054;-72
2022/07/08 08:07:36;;;;;;;131.80;118.75;;;16.90;97.70;;;;;;5050907;28;20089;-72
2022/07/08 08:10:04;;;;;;;133.13;119.88;;;16.90;97.80;;;;;;5017300;28;20113;-72
2022/07/08 08:12:32;;;;;;;131.13;118.05;;;17.00;97.70;;;;;;5024506;28;20141;-72
2022/07/08 08:14:59;;;;;;;127.63;115.20;;;17.00;97.70;;;;;;5030788;28;20051;-74
2022/07/08 08:17:26;;;;;;;130.15;117.57;;;17.00;97.60;;;;;;5011254;28;20785;-72
2022/07/08 08:19:53;;;;;;;130.48;117.85;;;17.10;97.60;;;;;;5017547;28;20140;-72
2022/07/08 08:22:20;;;;;;;130.35;117.90;;;17.10;97.60;;;;;;5000744;28;20048;-72
2022/07/08 08:24:47;;;;;;;132.05;119.40;;;17.10;97.60;;;;;;5035257;28;20061;-73
2022/07/08 08:27:13;;;;;;;137.57;124.45;;;17.20;97.60;;;;;;5015116;28;20579;-72
2022/07/08 08:29:42;;;;;;;131.77;119.10;;;17.20;97.40;;;;;;5014438;28;20129;-73
2022/07/08 08:32:09;;;;;;;135.18;122.57;;;17.20;97.40;;;;;;5014830;28;20054;-73
2022/07/08 08:34:36;;;;;;;133.23;120.50;;;17.20;97.40;;;;;;5014457;28;20054;-72
2022/07/08 08:37:03;;;;;;;135.25;122.38;;;17.30;97.40;;;;;;5003374;28;20088;-72
2022/07/08 08:39:30;;;;;;;135.73;122.90;;;17.30;97.50;;;;;;5033889;28;20091;-72
2022/07/08 08:41:58;;;;;;;135.85;122.80;;;17.40;97.60;;;;;;5046652;28;20046;-72
2022/07/08 08:44:26;;;;;;;134.55;121.93;;;17.40;97.60;;;;;;5016849;28;20617;-72
2022/07/08 08:46:54;;;;;;;137.13;124.75;;;17.50;97.50;;;;;;5047448;28;20996;-72
2022/07/08 08:49:21;;;;;;;136.82;124.18;;;17.50;97.40;;;;;;5031503;28;20054;-72
2022/07/08 08:51:50;;;;;;;138.88;125.60;;;17.60;97.40;;;;;;5014497;28;20548;-72
2022/07/08 08:54:18;;;;;;;137.55;124.78;;;17.70;97.40;;;;;;5015840;28;20061;-73
2022/07/08 08:56:47;;;;;;;140.90;128.30;;;17.70;97.40;;;;;;5016007;28;20050;-73
2022/07/08 08:59:15;;;;;;;141.05;127.97;;;17.70;97.40;;;;;;5003921;28;20055;-73
2022/07/08 09:01:47;;;;;;;136.13;123.38;;;17.80;97.50;;;;;;5014517;28;20055;-73
2022/07/08 09:04:15;;;;;;;135.23;122.65;;;17.80;97.40;;;;;;5012090;28;20066;-73
2022/07/08 09:06:42;;;;;;;139.05;126.13;;;17.90;97.20;;;;;;5029306;28;20048;-74
2022/07/08 09:09:09;;;;;;;136.80;124.28;;;17.90;97.10;;;;;;5013312;28;20046;-72
2022/07/08 09:11:36;;;;;;;135.40;122.90;;;17.90;97.00;;;;;;5012184;28;20068;-73
2022/07/08 09:14:15;;;;;;;136.98;124.35;;;18.00;96.90;;;;;;5015470;28;20546;-72
2022/07/08 09:16:42;;;;;;;136.15;123.57;;;18.00;96.70;;;;;;5012747;28;20068;-72
2022/07/08 09:19:14;;;;;;;140.27;127.55;;;18.10;96.80;;;;;;5037697;28;20512;-74
2022/07/08 09:21:51;;;;;;;139.85;126.63;;;18.10;96.80;;;;;;5009713;28;20049;-74
2022/07/08 09:24:18;;;;;;;140.20;127.25;;;18.10;96.80;;;;;;5013844;28;20042;-73
2022/07/08 09:26:46;;;;;;;140.57;127.80;;;18.10;96.80;;;;;;5031791;28;20054;-74
2022/07/08 09:29:13;;;;;;;136.73;123.93;;;18.20;96.80;;;;;;5013945;28;20117;-73
2022/07/08 09:31:40;;;;;;;138.48;126.00;;;18.20;96.60;;;;;;5009732;28;20400;-73
2022/07/08 09:34:10;;;;;;;138.02;124.93;;;18.30;96.60;;;;;;5013274;28;20137;-73
2022/07/08 09:36:50;;;;;;;140.77;127.82;;;18.30;96.50;;;;;;4999671;28;20196;-73
2022/07/08 09:39:24;;;;;;;138.35;125.50;;;18.30;96.30;;;;;;4991207;28;20050;-72
2022/07/08 09:41:51;;;;;;;139.68;126.75;;;18.40;96.30;;;;;;5011789;28;20078;-72
2022/07/08 09:44:19;;;;;;;139.77;126.93;;;18.40;96.40;;;;;;5027363;28;20105;-72
2022/07/08 09:46:47;;;;;;;139.10;126.20;;;18.40;96.50;;;;;;5036355;28;20056;-72
2022/07/08 09:49:28;;;;;;;142.20;128.98;;;18.50;96.60;;;;;;5039613;28;20089;-72
2022/07/08 09:51:57;;;;;;;141.38;128.30;;;18.50;96.50;;;;;;5035152;28;20513;-72
2022/07/08 09:54:25;;;;;;;137.65;124.90;;;18.50;96.50;;;;;;5039932;28;20061;-72
2022/07/08 09:56:59;;;;;;;140.68;127.55;;;18.60;96.50;;;;;;5009417;28;20124;-72
2022/07/08 09:59:26;;;;;;;137.50;124.85;;;18.60;96.30;;;;;;5039246;28;20042;-71
2022/07/08 10:01:53;;;;;;;137.20;124.47;;;18.60;96.30;;;;;;5014316;28;20208;-72
2022/07/08 10:04:22;;;;;;;138.68;125.97;;;18.60;96.10;;;;;;5033049;28;20133;-73
2022/07/08 10:06:50;;;;;;;141.80;129.30;;;18.60;96.20;;;;;;5015535;28;20054;-72
2022/07/08 10:09:18;;;;;;;139.50;126.70;;;18.70;96.00;;;;;;5007167;28;20488;-73
2022/07/08 10:11:46;;;;;;;137.73;125.18;;;18.70;95.80;;;;;;5012982;28;20069;-73
2022/07/08 10:14:14;;;;;;;138.80;125.93;;;18.70;95.70;;;;;;4996034;28;20050;-75
2022/07/08 10:16:43;;;;;;;140.15;127.47;;;18.70;95.80;;;;;;4995439;28;20050;-75
2022/07/08 10:19:17;;;;;;;138.55;125.95;;;18.80;95.60;;;;;;4994941;28;20042;-78
2022/07/08 10:21:50;;;;;;;138.07;125.63;;;18.80;95.40;;;;;;4994671;28;20893;-78
2022/07/08 10:24:23;;;;;;;141.27;128.65;;;18.80;95.40;;;;;;4979137;28;20091;-77
2022/07/08 10:26:50;;;;;;;140.38;127.75;;;18.80;95.30;;;;;;4995016;28;20073;-76
2022/07/08 10:29:17;;;;;;;136.63;124.25;;;18.80;95.20;;;;;;4995069;28;20042;-78
2022/07/08 10:31:46;;;;;;;137.98;125.60;;;18.80;95.30;;;;;;4995725;28;20056;-75
2022/07/08 10:34:13;;;;;;;140.30;126.97;;;18.90;95.20;;;;;;5028639;28;20050;-76
2022/07/08 10:36:48;;;;;;;143.13;130.45;;;18.90;95.30;;;;;;5013317;28;20061;-78
2022/07/08 10:39:23;;;;;;;140.30;127.70;;;18.90;95.40;;;;;;5013363;28;20505;-78
2022/07/08 10:41:59;;;;;;;139.00;126.70;;;18.90;95.30;;;;;;5028221;28;20125;-79
2022/07/08 10:44:49;;;;;;;142.70;130.15;;;19.00;95.40;;;;;;4995705;28;20074;-76
2022/07/08 10:47:17;;;;;;;139.73;127.28;;;19.00;95.60;;;;;;4995226;28;20886;-79
2022/07/08 10:49:45;;;;;;;139.43;127.13;;;19.00;95.10;;;;;;4995546;28;20054;-78
2022/07/08 10:52:13;;;;;;;140.60;127.93;;;19.00;95.20;;;;;;4993852;28;20110;-81
2022/07/08 10:54:40;;;;;;;141.27;128.57;;;19.10;95.10;;;;;;4994038;28;20053;-78
2022/07/08 10:57:17;;;;;;;142.25;129.35;;;19.10;95.20;;;;;;4977362;28;20129;-79
2022/07/08 11:00:10;;;;;;;135.82;123.57;;;19.10;95.20;;;;;;4994571;28;20050;-77
2022/07/08 11:02:41;;;;;;;137.65;124.97;;;19.20;95.00;;;;;;4993072;28;20125;-80
2022/07/08 11:05:31;;;;;;;138.65;125.72;;;19.20;95.00;;;;;;5028778;28;20054;-76
2022/07/08 11:08:23;;;;;;;142.23;129.75;;;19.20;95.00;;;;;;5031517;28;20062;-76
2022/07/08 11:10:52;;;;;;;141.98;129.10;;;19.30;94.80;;;;;;5026207;28;20133;-76
2022/07/08 11:13:21;;;;;;;140.68;127.97;;;19.30;94.60;;;;;;4995399;28;20065;-77
2022/07/08 11:15:48;;;;;;;140.32;127.93;;;19.30;94.70;;;;;;4994889;28;20892;-79
2022/07/08 11:18:21;;;;;;;142.85;130.45;;;19.30;94.90;;;;;;4994948;28;20133;-77
2022/07/08 11:20:49;;;;;;;143.50;130.85;;;19.30;94.90;;;;;;4996178;28;20047;-79
2022/07/08 11:23:20;;;;;;;144.65;131.85;;;19.30;94.90;;;;;;4996299;28;20493;-79
2022/07/08 11:25:48;;;;;;;142.95;130.60;;;19.40;94.70;;;;;;5026671;28;20057;-78
2022/07/08 11:28:25;;;;;;;143.48;130.70;;;19.40;94.40;;;;;;5011448;28;20886;-80
2022/07/08 11:30:53;;;;;;;144.30;131.57;;;19.40;94.30;;;;;;4994061;28;20143;-79
2022/07/08 11:33:20;;;;;;;144.60;131.65;;;19.50;94.50;;;;;;5028519;28;20066;-78
2022/07/08 11:35:47;;;;;;;145.82;133.13;;;19.50;94.30;;;;;;4997925;28;20060;-78
2022/07/08 11:38:35;;;;;;;143.75;130.80;;;19.60;94.30;;;;;;5014050;28;20069;-78
2022/07/08 11:41:01;;;;;;;142.98;130.07;;;19.60;94.70;;;;;;5028040;28;20152;-79
2022/07/08 11:43:30;;;;;;;147.15;134.10;;;19.70;94.60;;;;;;5014167;28;20051;-78
2022/07/08 11:45:57;;;;;;;153.73;140.00;;;19.70;95.20;;;;;;5023573;28;20098;-78
2022/07/08 11:48:36;;;;;;;152.60;140.00;;;19.70;94.30;;;;;;5035055;28;20051;-78
2022/07/08 11:51:03;;;;;;;155.38;142.55;;;19.80;93.40;;;;;;5030719;28;20101;-77
2022/07/08 11:53:31;;;;;;;150.73;137.93;;;19.80;93.50;;;;;;5022251;28;20518;-77
2022/07/08 11:55:58;;;;;;;153.52;140.43;;;19.90;93.80;;;;;;5035245;28;20061;-78
2022/07/08 11:58:26;;;;;;;149.57;136.82;;;20.00;93.80;;;;;;5016638;28;20496;-77
2022/07/08 12:00:54;;;;;;;149.25;136.32;;;20.10;93.70;;;;;;5040777;28;20058;-78
2022/07/08 12:03:21;;;;;;;150.70;137.70;;;20.20;93.70;;;;;;5000934;28;20276;-78
2022/07/08 12:05:48;;;;;;;147.32;134.85;;;20.30;93.30;;;;;;5017382;28;20120;-78
2022/07/08 12:08:18;;;;;;;149.13;136.52;;;20.30;92.70;;;;;;5037571;28;20057;-77
2022/07/08 12:10:45;;;;;;;146.48;133.73;;;20.40;93.00;;;;;;5044900;28;20038;-78
2022/07/08 12:13:12;;;;;;;151.23;138.60;;;20.40;93.10;;;;;;5036085;28;20050;-76
2022/07/08 12:15:38;;;;;;;149.45;136.68;;;20.40;93.30;;;;;;5016238;28;20512;-77
2022/07/08 12:18:07;;;;;;;148.45;135.85;;;20.50;93.70;;;;;;5038185;28;20129;-78